sensor_id;sensor_type;location;lat;lon;timestamp;P1;durP1;ratioP1;P2;durP2;ratioP2
21426;SDS011;10874;49.452;11.050;2023-05-07T00:01:10;2.90;;;2.70;;
21426;SDS011;10874;49.452;11.050;2023-05-07T00:03:37;3.57;;;2.73;;
21426;SDS011;10874;49.452;11.050;2023-05-07T00:06:04;5.20;;;3.17;;
21426;SDS011;10874;49.452;11.050;2023-05-07T00:08:32;3.20;;;2.90;;
21426;SDS011;10874;49.452;11.050;2023-05-07T00:10:58;4.30;;;3.30;;
21426;SDS011;10874;49.452;11.050;2023-05-07T00:13:25;3.30;;;2.70;;
21426;SDS011;10874;49.452;11.050;2023-05-07T00:15:52;3.03;;;2.70;;
21426;SDS011;10874;49.452;11.050;2023-05-07T00:18:18;3.07;;;2.80;;
21426;SDS011;10874;49.452;11.050;2023-05-07T00:20:47;3.93;;;2.53;;
21426;SDS011;10874;49.452;11.050;2023-05-07T00:23:14;3.80;;;2.60;;
21426;SDS011;10874;49.452;11.050;2023-05-07T00:25:41;5.50;;;2.87;;
21426;SDS011;10874;49.452;11.050;2023-05-07T00:28:07;3.50;;;2.50;;
21426;SDS011;10874;49.452;11.050;2023-05-07T00:30:34;2.90;;;2.70;;
21426;SDS011;10874;49.452;11.050;2023-05-07T00:33:01;2.90;;;2.43;;
21426;SDS011;10874;49.452;11.050;2023-05-07T00:35:28;3.60;;;3.00;;
21426;SDS011;10874;49.452;11.050;2023-05-07T00:37:56;2.90;;;2.70;;
21426;SDS011;10874;49.452;11.050;2023-05-07T00:40:23;3.47;;;2.80;;
21426;SDS011;10874;49.452;11.050;2023-05-07T00:42:49;3.27;;;2.90;;
21426;SDS011;10874;49.452;11.050;2023-05-07T00:45:16;2.97;;;2.77;;
21426;SDS011;10874;49.452;11.050;2023-05-07T00:47:43;2.80;;;2.60;;
21426;SDS011;10874;49.452;11.050;2023-05-07T00:50:10;2.80;;;2.60;;
21426;SDS011;10874;49.452;11.050;2023-05-07T00:52:39;2.53;;;2.33;;
21426;SDS011;10874;49.452;11.050;2023-05-07T00:55:06;3.23;;;2.67;;
21426;SDS011;10874;49.452;11.050;2023-05-07T00:57:36;2.83;;;2.53;;
21426;SDS011;10874;49.452;11.050;2023-05-07T01:00:04;2.93;;;2.63;;
21426;SDS011;10874;49.452;11.050;2023-05-07T01:02:31;2.50;;;2.30;;
21426;SDS011;10874;49.452;11.050;2023-05-07T01:04:58;2.63;;;2.33;;
21426;SDS011;10874;49.452;11.050;2023-05-07T01:07:25;2.83;;;2.43;;
21426;SDS011;10874;49.452;11.050;2023-05-07T01:09:52;2.90;;;2.70;;
21426;SDS011;10874;49.452;11.050;2023-05-07T01:12:19;2.97;;;2.40;;
21426;SDS011;10874;49.452;11.050;2023-05-07T01:14:46;2.80;;;2.30;;
21426;SDS011;10874;49.452;11.050;2023-05-07T01:17:12;3.23;;;2.63;;
21426;SDS011;10874;49.452;11.050;2023-05-07T01:19:39;2.70;;;2.50;;
21426;SDS011;10874;49.452;11.050;2023-05-07T01:22:07;4.23;;;2.80;;
21426;SDS011;10874;49.452;11.050;2023-05-07T01:24:43;2.77;;;2.50;;
21426;SDS011;10874;49.452;11.050;2023-05-07T01:27:11;2.97;;;2.77;;
21426;SDS011;10874;49.452;11.050;2023-05-07T01:29:38;2.77;;;2.50;;
21426;SDS011;10874;49.452;11.050;2023-05-07T01:32:05;2.67;;;2.47;;
21426;SDS011;10874;49.452;11.050;2023-05-07T01:34:32;2.63;;;2.43;;
21426;SDS011;10874;49.452;11.050;2023-05-07T01:36:59;2.80;;;2.60;;
21426;SDS011;10874;49.452;11.050;2023-05-07T01:39:27;3.43;;;2.77;;
21426;SDS011;10874;49.452;11.050;2023-05-07T01:41:54;3.00;;;2.70;;
21426;SDS011;10874;49.452;11.050;2023-05-07T01:44:22;2.60;;;2.40;;
21426;SDS011;10874;49.452;11.050;2023-05-07T01:46:50;4.07;;;3.10;;
21426;SDS011;10874;49.452;11.050;2023-05-07T01:49:16;2.90;;;2.60;;
21426;SDS011;10874;49.452;11.050;2023-05-07T01:51:43;2.87;;;2.57;;
21426;SDS011;10874;49.452;11.050;2023-05-07T01:54:10;3.27;;;2.70;;
21426;SDS011;10874;49.452;11.050;2023-05-07T01:56:37;3.00;;;2.73;;
21426;SDS011;10874;49.452;11.050;2023-05-07T02:01:31;3.80;;;2.57;;
21426;SDS011;10874;49.452;11.050;2023-05-07T02:03:58;2.70;;;2.50;;
21426;SDS011;10874;49.452;11.050;2023-05-07T02:06:28;2.87;;;2.67;;
21426;SDS011;10874;49.452;11.050;2023-05-07T02:08:59;3.27;;;2.90;;
21426;SDS011;10874;49.452;11.050;2023-05-07T02:11:27;3.97;;;2.70;;
21426;SDS011;10874;49.452;11.050;2023-05-07T02:13:54;3.60;;;3.30;;
21426;SDS011;10874;49.452;11.050;2023-05-07T02:16:20;3.67;;;2.73;;
21426;SDS011;10874;49.452;11.050;2023-05-07T02:18:49;3.67;;;2.63;;
21426;SDS011;10874;49.452;11.050;2023-05-07T02:21:16;3.57;;;3.20;;
21426;SDS011;10874;49.452;11.050;2023-05-07T02:23:43;3.40;;;3.00;;
21426;SDS011;10874;49.452;11.050;2023-05-07T02:26:10;3.70;;;3.00;;
21426;SDS011;10874;49.452;11.050;2023-05-07T02:28:37;4.33;;;3.30;;
21426;SDS011;10874;49.452;11.050;2023-05-07T02:31:05;3.27;;;2.97;;
21426;SDS011;10874;49.452;11.050;2023-05-07T02:33:32;3.70;;;3.03;;
21426;SDS011;10874;49.452;11.050;2023-05-07T02:36:09;5.17;;;3.33;;
21426;SDS011;10874;49.452;11.050;2023-05-07T02:38:45;3.53;;;3.23;;
21426;SDS011;10874;49.452;11.050;2023-05-07T02:41:11;3.87;;;3.57;;
21426;SDS011;10874;49.452;11.050;2023-05-07T02:43:38;3.87;;;3.57;;
21426;SDS011;10874;49.452;11.050;2023-05-07T02:46:06;5.03;;;4.03;;
21426;SDS011;10874;49.452;11.050;2023-05-07T02:48:36;3.93;;;3.63;;
21426;SDS011;10874;49.452;11.050;2023-05-07T02:51:03;3.43;;;3.13;;
21426;SDS011;10874;49.452;11.050;2023-05-07T02:53:30;3.63;;;3.33;;
21426;SDS011;10874;49.452;11.050;2023-05-07T02:55:58;3.90;;;3.53;;
21426;SDS011;10874;49.452;11.050;2023-05-07T02:58:25;4.27;;;3.87;;
21426;SDS011;10874;49.452;11.050;2023-05-07T03:00:52;3.93;;;3.63;;
21426;SDS011;10874;49.452;11.050;2023-05-07T03:03:27;4.53;;;4.23;;
21426;SDS011;10874;49.452;11.050;2023-05-07T03:05:54;4.63;;;4.23;;
21426;SDS011;10874;49.452;11.050;2023-05-07T03:08:20;4.73;;;4.10;;
21426;SDS011;10874;49.452;11.050;2023-05-07T03:10:47;4.97;;;4.47;;
21426;SDS011;10874;49.452;11.050;2023-05-07T03:13:14;4.53;;;4.00;;
21426;SDS011;10874;49.452;11.050;2023-05-07T03:15:41;4.80;;;4.20;;
21426;SDS011;10874;49.452;11.050;2023-05-07T03:18:08;4.60;;;4.20;;
21426;SDS011;10874;49.452;11.050;2023-05-07T03:20:35;5.07;;;4.53;;
21426;SDS011;10874;49.452;11.050;2023-05-07T03:23:03;5.20;;;4.70;;
21426;SDS011;10874;49.452;11.050;2023-05-07T03:25:30;4.30;;;3.93;;
21426;SDS011;10874;49.452;11.050;2023-05-07T03:27:57;5.97;;;4.70;;
21426;SDS011;10874;49.452;11.050;2023-05-07T03:30:29;5.33;;;4.83;;
21426;SDS011;10874;49.452;11.050;2023-05-07T03:32:56;5.43;;;4.83;;
21426;SDS011;10874;49.452;11.050;2023-05-07T03:35:23;5.50;;;4.47;;
21426;SDS011;10874;49.452;11.050;2023-05-07T03:37:50;4.70;;;4.30;;
21426;SDS011;10874;49.452;11.050;2023-05-07T03:40:17;5.00;;;4.60;;
21426;SDS011;10874;49.452;11.050;2023-05-07T03:42:47;5.07;;;4.67;;
21426;SDS011;10874;49.452;11.050;2023-05-07T03:45:15;5.17;;;4.43;;
21426;SDS011;10874;49.452;11.050;2023-05-07T03:47:47;5.43;;;4.60;;
21426;SDS011;10874;49.452;11.050;2023-05-07T03:50:17;4.67;;;4.27;;
21426;SDS011;10874;49.452;11.050;2023-05-07T03:52:44;6.37;;;4.57;;
21426;SDS011;10874;49.452;11.050;2023-05-07T03:55:12;4.80;;;4.30;;
21426;SDS011;10874;49.452;11.050;2023-05-07T03:57:42;5.03;;;4.50;;
21426;SDS011;10874;49.452;11.050;2023-05-07T04:00:12;6.37;;;5.10;;
21426;SDS011;10874;49.452;11.050;2023-05-07T04:02:48;5.97;;;5.00;;
21426;SDS011;10874;49.452;11.050;2023-05-07T04:05:22;5.50;;;5.00;;
21426;SDS011;10874;49.452;11.050;2023-05-07T04:07:54;5.43;;;4.67;;
21426;SDS011;10874;49.452;11.050;2023-05-07T04:10:26;5.83;;;5.00;;
21426;SDS011;10874;49.452;11.050;2023-05-07T04:12:56;5.43;;;4.93;;
21426;SDS011;10874;49.452;11.050;2023-05-07T04:15:25;7.03;;;5.80;;
21426;SDS011;10874;49.452;11.050;2023-05-07T04:17:51;6.13;;;5.20;;
21426;SDS011;10874;49.452;11.050;2023-05-07T04:20:21;9.77;;;7.80;;
21426;SDS011;10874;49.452;11.050;2023-05-07T04:22:54;13.13;;;9.57;;
21426;SDS011;10874;49.452;11.050;2023-05-07T04:25:23;6.17;;;4.90;;
21426;SDS011;10874;49.452;11.050;2023-05-07T04:27:57;5.13;;;4.67;;
21426;SDS011;10874;49.452;11.050;2023-05-07T04:30:26;5.20;;;4.43;;
21426;SDS011;10874;49.452;11.050;2023-05-07T04:32:53;5.00;;;4.47;;
21426;SDS011;10874;49.452;11.050;2023-05-07T04:35:21;4.73;;;4.27;;
21426;SDS011;10874;49.452;11.050;2023-05-07T04:37:48;5.13;;;4.60;;
21426;SDS011;10874;49.452;11.050;2023-05-07T04:40:16;5.53;;;4.97;;
21426;SDS011;10874;49.452;11.050;2023-05-07T04:42:43;5.37;;;4.87;;
21426;SDS011;10874;49.452;11.050;2023-05-07T04:45:10;5.37;;;4.87;;
21426;SDS011;10874;49.452;11.050;2023-05-07T04:47:39;6.13;;;5.53;;
21426;SDS011;10874;49.452;11.050;2023-05-07T04:50:09;5.03;;;4.60;;
21426;SDS011;10874;49.452;11.050;2023-05-07T04:52:37;6.53;;;5.83;;
21426;SDS011;10874;49.452;11.050;2023-05-07T04:55:05;6.37;;;5.37;;
21426;SDS011;10874;49.452;11.050;2023-05-07T04:57:36;6.03;;;5.53;;
21426;SDS011;10874;49.452;11.050;2023-05-07T05:00:04;6.13;;;5.63;;
21426;SDS011;10874;49.452;11.050;2023-05-07T05:02:33;6.07;;;5.40;;
21426;SDS011;10874;49.452;11.050;2023-05-07T05:05:01;6.47;;;5.87;;
21426;SDS011;10874;49.452;11.050;2023-05-07T05:07:28;6.03;;;5.37;;
21426;SDS011;10874;49.452;11.050;2023-05-07T05:09:55;6.70;;;5.87;;
21426;SDS011;10874;49.452;11.050;2023-05-07T05:12:24;6.60;;;5.90;;
21426;SDS011;10874;49.452;11.050;2023-05-07T05:14:51;7.13;;;6.20;;
21426;SDS011;10874;49.452;11.050;2023-05-07T05:17:18;7.20;;;6.50;;
21426;SDS011;10874;49.452;11.050;2023-05-07T05:19:45;6.97;;;6.33;;
21426;SDS011;10874;49.452;11.050;2023-05-07T05:22:12;6.93;;;6.20;;
21426;SDS011;10874;49.452;11.050;2023-05-07T05:24:39;6.93;;;6.23;;
21426;SDS011;10874;49.452;11.050;2023-05-07T05:27:06;7.10;;;6.40;;
21426;SDS011;10874;49.452;11.050;2023-05-07T05:29:33;7.60;;;6.37;;
21426;SDS011;10874;49.452;11.050;2023-05-07T05:32:00;7.07;;;6.37;;
21426;SDS011;10874;49.452;11.050;2023-05-07T05:34:29;6.73;;;6.13;;
21426;SDS011;10874;49.452;11.050;2023-05-07T05:36:58;6.33;;;5.73;;
21426;SDS011;10874;49.452;11.050;2023-05-07T05:39:25;7.63;;;6.93;;
21426;SDS011;10874;49.452;11.050;2023-05-07T05:41:51;7.03;;;6.23;;
21426;SDS011;10874;49.452;11.050;2023-05-07T05:44:19;7.57;;;6.87;;
21426;SDS011;10874;49.452;11.050;2023-05-07T05:46:46;7.60;;;6.67;;
21426;SDS011;10874;49.452;11.050;2023-05-07T05:49:13;7.67;;;6.93;;
21426;SDS011;10874;49.452;11.050;2023-05-07T05:51:40;7.50;;;6.80;;
21426;SDS011;10874;49.452;11.050;2023-05-07T05:54:07;6.83;;;6.10;;
21426;SDS011;10874;49.452;11.050;2023-05-07T05:56:34;8.43;;;7.33;;
21426;SDS011;10874;49.452;11.050;2023-05-07T05:59:01;7.50;;;6.77;;
21426;SDS011;10874;49.452;11.050;2023-05-07T06:01:28;7.43;;;6.73;;
21426;SDS011;10874;49.452;11.050;2023-05-07T06:03:58;7.60;;;6.90;;
21426;SDS011;10874;49.452;11.050;2023-05-07T06:06:24;7.07;;;6.40;;
21426;SDS011;10874;49.452;11.050;2023-05-07T06:08:53;7.43;;;6.73;;
21426;SDS011;10874;49.452;11.050;2023-05-07T06:11:25;7.70;;;6.90;;
21426;SDS011;10874;49.452;11.050;2023-05-07T06:13:51;7.87;;;7.07;;
21426;SDS011;10874;49.452;11.050;2023-05-07T06:16:18;7.60;;;6.90;;
21426;SDS011;10874;49.452;11.050;2023-05-07T06:18:45;7.63;;;6.70;;
21426;SDS011;10874;49.452;11.050;2023-05-07T06:21:14;8.20;;;7.17;;
21426;SDS011;10874;49.452;11.050;2023-05-07T06:23:41;7.73;;;6.93;;
21426;SDS011;10874;49.452;11.050;2023-05-07T06:26:09;8.93;;;7.10;;
21426;SDS011;10874;49.452;11.050;2023-05-07T06:28:40;8.20;;;6.90;;
21426;SDS011;10874;49.452;11.050;2023-05-07T06:31:11;8.00;;;7.30;;
21426;SDS011;10874;49.452;11.050;2023-05-07T06:33:38;7.77;;;7.07;;
21426;SDS011;10874;49.452;11.050;2023-05-07T06:36:05;9.10;;;7.37;;
21426;SDS011;10874;49.452;11.050;2023-05-07T06:38:32;7.33;;;6.63;;
21426;SDS011;10874;49.452;11.050;2023-05-07T06:40:59;7.93;;;7.23;;
21426;SDS011;10874;49.452;11.050;2023-05-07T06:43:26;8.37;;;7.57;;
21426;SDS011;10874;49.452;11.050;2023-05-07T06:46:11;7.70;;;7.00;;
21426;SDS011;10874;49.452;11.050;2023-05-07T06:48:38;8.20;;;7.37;;
21426;SDS011;10874;49.452;11.050;2023-05-07T06:51:05;7.80;;;7.10;;
21426;SDS011;10874;49.452;11.050;2023-05-07T06:53:32;8.30;;;6.87;;
21426;SDS011;10874;49.452;11.050;2023-05-07T06:56:00;7.60;;;6.90;;
21426;SDS011;10874;49.452;11.050;2023-05-07T06:58:27;7.47;;;6.77;;
21426;SDS011;10874;49.452;11.050;2023-05-07T07:00:54;7.97;;;7.00;;
21426;SDS011;10874;49.452;11.050;2023-05-07T07:03:21;7.30;;;6.63;;
21426;SDS011;10874;49.452;11.050;2023-05-07T07:05:51;7.37;;;6.77;;
21426;SDS011;10874;49.452;11.050;2023-05-07T07:08:17;7.63;;;6.93;;
21426;SDS011;10874;49.452;11.050;2023-05-07T07:10:44;7.40;;;6.60;;
21426;SDS011;10874;49.452;11.050;2023-05-07T07:13:11;7.47;;;6.77;;
21426;SDS011;10874;49.452;11.050;2023-05-07T07:15:38;9.00;;;7.37;;
21426;SDS011;10874;49.452;11.050;2023-05-07T07:18:06;7.87;;;7.10;;
21426;SDS011;10874;49.452;11.050;2023-05-07T07:20:33;7.53;;;6.87;;
21426;SDS011;10874;49.452;11.050;2023-05-07T07:23:00;7.90;;;7.10;;
21426;SDS011;10874;49.452;11.050;2023-05-07T07:25:27;7.20;;;6.60;;
21426;SDS011;10874;49.452;11.050;2023-05-07T07:27:53;7.43;;;6.57;;
21426;SDS011;10874;49.452;11.050;2023-05-07T07:30:22;7.00;;;6.30;;
21426;SDS011;10874;49.452;11.050;2023-05-07T07:32:48;7.53;;;6.83;;
21426;SDS011;10874;49.452;11.050;2023-05-07T07:35:15;7.63;;;6.93;;
21426;SDS011;10874;49.452;11.050;2023-05-07T07:37:43;6.80;;;6.20;;
21426;SDS011;10874;49.452;11.050;2023-05-07T07:40:12;6.80;;;6.20;;
21426;SDS011;10874;49.452;11.050;2023-05-07T07:42:39;7.13;;;6.43;;
21426;SDS011;10874;49.452;11.050;2023-05-07T07:45:06;6.83;;;6.13;;
21426;SDS011;10874;49.452;11.050;2023-05-07T07:47:38;6.47;;;5.87;;
21426;SDS011;10874;49.452;11.050;2023-05-07T07:50:06;8.03;;;6.23;;
21426;SDS011;10874;49.452;11.050;2023-05-07T07:52:34;6.63;;;6.00;;
21426;SDS011;10874;49.452;11.050;2023-05-07T07:55:01;6.73;;;6.13;;
21426;SDS011;10874;49.452;11.050;2023-05-07T07:57:28;6.03;;;5.53;;
21426;SDS011;10874;49.452;11.050;2023-05-07T07:59:55;8.77;;;6.80;;
21426;SDS011;10874;49.452;11.050;2023-05-07T08:02:22;6.83;;;6.20;;
21426;SDS011;10874;49.452;11.050;2023-05-07T08:04:50;6.30;;;5.70;;
21426;SDS011;10874;49.452;11.050;2023-05-07T08:07:17;6.70;;;6.10;;
21426;SDS011;10874;49.452;11.050;2023-05-07T08:09:47;7.07;;;6.37;;
21426;SDS011;10874;49.452;11.050;2023-05-07T08:12:17;6.77;;;6.13;;
21426;SDS011;10874;49.452;11.050;2023-05-07T08:14:44;7.07;;;6.17;;
21426;SDS011;10874;49.452;11.050;2023-05-07T08:17:11;7.57;;;6.53;;
21426;SDS011;10874;49.452;11.050;2023-05-07T08:19:38;6.90;;;6.03;;
21426;SDS011;10874;49.452;11.050;2023-05-07T08:22:08;7.33;;;6.57;;
21426;SDS011;10874;49.452;11.050;2023-05-07T08:24:34;6.87;;;6.27;;
21426;SDS011;10874;49.452;11.050;2023-05-07T08:27:01;6.60;;;6.00;;
21426;SDS011;10874;49.452;11.050;2023-05-07T08:29:28;6.60;;;6.00;;
21426;SDS011;10874;49.452;11.050;2023-05-07T08:31:55;6.83;;;6.23;;
21426;SDS011;10874;49.452;11.050;2023-05-07T08:34:22;6.50;;;5.90;;
21426;SDS011;10874;49.452;11.050;2023-05-07T08:36:51;6.53;;;5.70;;
21426;SDS011;10874;49.452;11.050;2023-05-07T08:39:20;6.17;;;5.67;;
21426;SDS011;10874;49.452;11.050;2023-05-07T08:41:50;6.87;;;5.60;;
21426;SDS011;10874;49.452;11.050;2023-05-07T08:44:19;5.80;;;5.30;;
21426;SDS011;10874;49.452;11.050;2023-05-07T08:46:49;5.93;;;5.33;;
21426;SDS011;10874;49.452;11.050;2023-05-07T08:49:20;5.80;;;5.30;;
21426;SDS011;10874;49.452;11.050;2023-05-07T08:51:47;6.20;;;5.60;;
21426;SDS011;10874;49.452;11.050;2023-05-07T08:54:17;5.63;;;5.13;;
21426;SDS011;10874;49.452;11.050;2023-05-07T08:56:46;6.20;;;5.40;;
21426;SDS011;10874;49.452;11.050;2023-05-07T08:59:13;5.87;;;5.23;;
21426;SDS011;10874;49.452;11.050;2023-05-07T09:01:41;5.70;;;5.20;;
21426;SDS011;10874;49.452;11.050;2023-05-07T09:04:09;5.20;;;4.80;;
21426;SDS011;10874;49.452;11.050;2023-05-07T09:06:36;5.30;;;4.90;;
21426;SDS011;10874;49.452;11.050;2023-05-07T09:09:09;5.50;;;4.93;;
21426;SDS011;10874;49.452;11.050;2023-05-07T09:11:41;5.57;;;5.07;;
21426;SDS011;10874;49.452;11.050;2023-05-07T09:14:07;5.30;;;4.83;;
21426;SDS011;10874;49.452;11.050;2023-05-07T09:16:39;5.57;;;5.00;;
21426;SDS011;10874;49.452;11.050;2023-05-07T09:19:05;6.07;;;5.40;;
21426;SDS011;10874;49.452;11.050;2023-05-07T09:21:33;5.77;;;5.33;;
21426;SDS011;10874;49.452;11.050;2023-05-07T09:24:03;6.07;;;5.57;;
21426;SDS011;10874;49.452;11.050;2023-05-07T09:26:35;5.40;;;4.90;;
21426;SDS011;10874;49.452;11.050;2023-05-07T09:29:03;5.50;;;5.00;;
21426;SDS011;10874;49.452;11.050;2023-05-07T09:31:30;5.10;;;4.70;;
21426;SDS011;10874;49.452;11.050;2023-05-07T09:33:57;5.13;;;4.73;;
21426;SDS011;10874;49.452;11.050;2023-05-07T09:36:27;5.40;;;4.90;;
21426;SDS011;10874;49.452;11.050;2023-05-07T09:38:54;6.20;;;5.30;;
21426;SDS011;10874;49.452;11.050;2023-05-07T09:41:22;6.17;;;5.03;;
21426;SDS011;10874;49.452;11.050;2023-05-07T09:43:57;5.20;;;4.70;;
21426;SDS011;10874;49.452;11.050;2023-05-07T09:46:30;5.10;;;4.60;;
21426;SDS011;10874;49.452;11.050;2023-05-07T09:49:00;5.23;;;4.73;;
21426;SDS011;10874;49.452;11.050;2023-05-07T09:51:49;6.57;;;5.10;;
21426;SDS011;10874;49.452;11.050;2023-05-07T09:54:17;5.07;;;4.57;;
21426;SDS011;10874;49.452;11.050;2023-05-07T09:56:48;6.20;;;5.00;;
21426;SDS011;10874;49.452;11.050;2023-05-07T09:59:16;5.13;;;4.73;;
21426;SDS011;10874;49.452;11.050;2023-05-07T10:01:45;5.37;;;4.80;;
21426;SDS011;10874;49.452;11.050;2023-05-07T10:04:12;6.73;;;4.90;;
21426;SDS011;10874;49.452;11.050;2023-05-07T10:06:41;5.80;;;4.97;;
21426;SDS011;10874;49.452;11.050;2023-05-07T10:09:09;5.30;;;4.80;;
21426;SDS011;10874;49.452;11.050;2023-05-07T10:11:37;5.20;;;4.70;;
21426;SDS011;10874;49.452;11.050;2023-05-07T10:14:04;5.30;;;4.80;;
21426;SDS011;10874;49.452;11.050;2023-05-07T10:16:35;5.43;;;4.93;;
21426;SDS011;10874;49.452;11.050;2023-05-07T10:19:06;5.07;;;4.57;;
21426;SDS011;10874;49.452;11.050;2023-05-07T10:21:35;5.33;;;4.43;;
21426;SDS011;10874;49.452;11.050;2023-05-07T10:24:25;5.43;;;4.93;;
21426;SDS011;10874;49.452;11.050;2023-05-07T10:26:51;5.20;;;4.70;;
21426;SDS011;10874;49.452;11.050;2023-05-07T10:34:47;5.00;;;4.60;;
21426;SDS011;10874;49.452;11.050;2023-05-07T10:37:15;4.80;;;4.23;;
21426;SDS011;10874;49.452;11.050;2023-05-07T10:39:43;4.90;;;4.50;;
21426;SDS011;10874;49.452;11.050;2023-05-07T10:42:11;6.30;;;4.73;;
21426;SDS011;10874;49.452;11.050;2023-05-07T10:44:41;4.87;;;4.47;;
21426;SDS011;10874;49.452;11.050;2023-05-07T10:47:14;5.47;;;4.53;;
21426;SDS011;10874;49.452;11.050;2023-05-07T10:52:20;4.73;;;4.33;;
21426;SDS011;10874;49.452;11.050;2023-05-07T10:57:39;4.33;;;3.93;;
21426;SDS011;10874;49.452;11.050;2023-05-07T11:00:41;4.60;;;4.20;;
21426;SDS011;10874;49.452;11.050;2023-05-07T11:03:10;4.70;;;4.13;;
21426;SDS011;10874;49.452;11.050;2023-05-07T11:06:15;3.93;;;3.63;;
21426;SDS011;10874;49.452;11.050;2023-05-07T11:08:57;3.50;;;3.30;;
21426;SDS011;10874;49.452;11.050;2023-05-07T11:11:49;4.27;;;3.87;;
21426;SDS011;10874;49.452;11.050;2023-05-07T11:14:43;4.77;;;4.37;;
21426;SDS011;10874;49.452;11.050;2023-05-07T11:17:14;4.17;;;3.77;;
21426;SDS011;10874;49.452;11.050;2023-05-07T11:19:53;4.77;;;4.37;;
21426;SDS011;10874;49.452;11.050;2023-05-07T11:25:35;4.00;;;3.60;;
21426;SDS011;10874;49.452;11.050;2023-05-07T11:28:09;5.23;;;4.33;;
21426;SDS011;10874;49.452;11.050;2023-05-07T11:30:45;4.23;;;3.83;;
21426;SDS011;10874;49.452;11.050;2023-05-07T11:33:19;3.87;;;3.57;;
21426;SDS011;10874;49.452;11.050;2023-05-07T11:35:48;3.87;;;3.57;;
21426;SDS011;10874;49.452;11.050;2023-05-07T11:38:18;3.90;;;3.60;;
21426;SDS011;10874;49.452;11.050;2023-05-07T11:40:52;4.37;;;3.70;;
21426;SDS011;10874;49.452;11.050;2023-05-07T11:43:19;5.17;;;3.77;;
21426;SDS011;10874;49.452;11.050;2023-05-07T11:45:46;3.50;;;3.30;;
21426;SDS011;10874;49.452;11.050;2023-05-07T11:48:13;3.47;;;3.20;;
21426;SDS011;10874;49.452;11.050;2023-05-07T11:50:53;3.30;;;2.87;;
21426;SDS011;10874;49.452;11.050;2023-05-07T11:53:20;4.33;;;3.33;;
21426;SDS011;10874;49.452;11.050;2023-05-07T11:55:47;3.47;;;3.13;;
21426;SDS011;10874;49.452;11.050;2023-05-07T11:58:20;3.43;;;3.13;;
21426;SDS011;10874;49.452;11.050;2023-05-07T12:00:50;3.57;;;3.27;;
21426;SDS011;10874;49.452;11.050;2023-05-07T12:03:17;3.93;;;3.30;;
21426;SDS011;10874;49.452;11.050;2023-05-07T12:05:45;4.63;;;4.23;;
21426;SDS011;10874;49.452;11.050;2023-05-07T12:08:15;3.07;;;2.77;;
21426;SDS011;10874;49.452;11.050;2023-05-07T12:10:42;3.43;;;3.10;;
21426;SDS011;10874;49.452;11.050;2023-05-07T12:15:43;3.23;;;3.00;;
21426;SDS011;10874;49.452;11.050;2023-05-07T12:18:12;3.07;;;2.80;;
21426;SDS011;10874;49.452;11.050;2023-05-07T12:20:39;3.87;;;3.10;;
21426;SDS011;10874;49.452;11.050;2023-05-07T12:23:06;3.07;;;2.77;;
21426;SDS011;10874;49.452;11.050;2023-05-07T12:25:38;3.60;;;2.60;;
21426;SDS011;10874;49.452;11.050;2023-05-07T12:28:05;4.90;;;3.47;;
21426;SDS011;10874;49.452;11.050;2023-05-07T12:30:36;3.27;;;2.97;;
21426;SDS011;10874;49.452;11.050;2023-05-07T12:33:03;3.97;;;3.67;;
21426;SDS011;10874;49.452;11.050;2023-05-07T12:35:30;4.40;;;4.00;;
21426;SDS011;10874;49.452;11.050;2023-05-07T12:37:58;4.27;;;3.87;;
21426;SDS011;10874;49.452;11.050;2023-05-07T12:40:36;5.20;;;3.93;;
21426;SDS011;10874;49.452;11.050;2023-05-07T12:43:03;3.70;;;3.40;;
21426;SDS011;10874;49.452;11.050;2023-05-07T12:45:29;4.40;;;4.00;;
21426;SDS011;10874;49.452;11.050;2023-05-07T12:47:57;5.00;;;4.60;;
21426;SDS011;10874;49.452;11.050;2023-05-07T12:50:30;4.77;;;3.80;;
21426;SDS011;10874;49.452;11.050;2023-05-07T12:52:57;3.63;;;3.17;;
21426;SDS011;10874;49.452;11.050;2023-05-07T12:55:24;3.37;;;3.07;;
21426;SDS011;10874;49.452;11.050;2023-05-07T12:57:51;3.83;;;3.53;;
21426;SDS011;10874;49.452;11.050;2023-05-07T13:00:18;4.00;;;3.70;;
21426;SDS011;10874;49.452;11.050;2023-05-07T13:02:58;4.10;;;3.70;;
21426;SDS011;10874;49.452;11.050;2023-05-07T13:05:25;4.07;;;3.43;;
21426;SDS011;10874;49.452;11.050;2023-05-07T13:07:52;3.87;;;3.50;;
21426;SDS011;10874;49.452;11.050;2023-05-07T13:10:19;3.80;;;3.50;;
21426;SDS011;10874;49.452;11.050;2023-05-07T13:12:46;4.43;;;4.13;;
21426;SDS011;10874;49.452;11.050;2023-05-07T13:15:12;3.60;;;3.30;;
21426;SDS011;10874;49.452;11.050;2023-05-07T13:17:39;3.40;;;3.20;;
21426;SDS011;10874;49.452;11.050;2023-05-07T13:20:06;3.80;;;3.50;;
21426;SDS011;10874;49.452;11.050;2023-05-07T13:22:34;3.60;;;3.30;;
21426;SDS011;10874;49.452;11.050;2023-05-07T13:25:01;3.67;;;3.37;;
21426;SDS011;10874;49.452;11.050;2023-05-07T13:27:27;3.60;;;3.30;;
21426;SDS011;10874;49.452;11.050;2023-05-07T13:29:57;4.43;;;3.70;;
21426;SDS011;10874;49.452;11.050;2023-05-07T13:32:23;3.83;;;3.50;;
21426;SDS011;10874;49.452;11.050;2023-05-07T13:34:50;3.73;;;3.40;;
21426;SDS011;10874;49.452;11.050;2023-05-07T13:37:17;3.57;;;3.27;;
21426;SDS011;10874;49.452;11.050;2023-05-07T13:39:43;3.50;;;3.20;;
21426;SDS011;10874;49.452;11.050;2023-05-07T13:42:11;3.60;;;3.27;;
21426;SDS011;10874;49.452;11.050;2023-05-07T13:44:37;3.70;;;3.40;;
21426;SDS011;10874;49.452;11.050;2023-05-07T13:47:04;3.23;;;2.93;;
21426;SDS011;10874;49.452;11.050;2023-05-07T13:49:31;3.27;;;3.07;;
21426;SDS011;10874;49.452;11.050;2023-05-07T13:51:57;5.17;;;4.00;;
21426;SDS011;10874;49.452;11.050;2023-05-07T13:54:24;4.47;;;3.53;;
21426;SDS011;10874;49.452;11.050;2023-05-07T13:56:51;3.70;;;3.40;;
21426;SDS011;10874;49.452;11.050;2023-05-07T13:59:17;3.50;;;3.20;;
21426;SDS011;10874;49.452;11.050;2023-05-07T14:01:44;3.50;;;3.20;;
21426;SDS011;10874;49.452;11.050;2023-05-07T14:04:11;3.93;;;3.63;;
21426;SDS011;10874;49.452;11.050;2023-05-07T14:06:38;3.67;;;3.37;;
21426;SDS011;10874;49.452;11.050;2023-05-07T14:09:05;4.10;;;3.50;;
21426;SDS011;10874;49.452;11.050;2023-05-07T14:11:32;3.87;;;3.30;;
21426;SDS011;10874;49.452;11.050;2023-05-07T14:14:01;3.40;;;3.10;;
21426;SDS011;10874;49.452;11.050;2023-05-07T14:16:28;3.87;;;3.57;;
21426;SDS011;10874;49.452;11.050;2023-05-07T14:18:54;3.17;;;2.97;;
21426;SDS011;10874;49.452;11.050;2023-05-07T14:21:24;3.93;;;3.40;;
21426;SDS011;10874;49.452;11.050;2023-05-07T14:23:50;3.50;;;3.20;;
21426;SDS011;10874;49.452;11.050;2023-05-07T14:26:17;4.30;;;3.90;;
21426;SDS011;10874;49.452;11.050;2023-05-07T14:28:44;23.33;;;18.00;;
21426;SDS011;10874;49.452;11.050;2023-05-07T14:31:12;5.87;;;5.27;;
21426;SDS011;10874;49.452;11.050;2023-05-07T14:33:39;3.50;;;3.20;;
21426;SDS011;10874;49.452;11.050;2023-05-07T14:36:08;3.40;;;3.10;;
21426;SDS011;10874;49.452;11.050;2023-05-07T14:38:34;3.40;;;3.10;;
21426;SDS011;10874;49.452;11.050;2023-05-07T14:41:01;2.87;;;2.67;;
21426;SDS011;10874;49.452;11.050;2023-05-07T14:43:28;3.37;;;3.17;;
21426;SDS011;10874;49.452;11.050;2023-05-07T14:45:55;3.90;;;3.50;;
21426;SDS011;10874;49.452;11.050;2023-05-07T14:48:21;5.23;;;3.90;;
21426;SDS011;10874;49.452;11.050;2023-05-07T14:50:48;3.90;;;3.60;;
21426;SDS011;10874;49.452;11.050;2023-05-07T14:53:15;4.37;;;3.90;;
21426;SDS011;10874;49.452;11.050;2023-05-07T14:55:42;5.10;;;3.87;;
21426;SDS011;10874;49.452;11.050;2023-05-07T14:58:09;4.20;;;3.80;;
21426;SDS011;10874;49.452;11.050;2023-05-07T15:00:36;4.57;;;4.17;;